sensor_id;sensor_type;location;lat;lon;timestamp;P1;durP1;ratioP1;P2;durP2;ratioP2
9547;SDS011;4812;51.992;8.648;2023-02-01T00:00:33;20.93;;;4.00;;
9547;SDS011;4812;51.992;8.648;2023-02-01T00:03:01;17.97;;;4.57;;
9547;SDS011;4812;51.992;8.648;2023-02-01T00:05:29;21.10;;;4.00;;
9547;SDS011;4812;51.992;8.648;2023-02-01T00:07:57;15.97;;;3.90;;
9547;SDS011;4812;51.992;8.648;2023-02-01T00:10:24;12.87;;;4.77;;
9547;SDS011;4812;51.992;8.648;2023-02-01T00:12:52;13.80;;;4.30;;
9547;SDS011;4812;51.992;8.648;2023-02-01T00:15:19;15.03;;;4.03;;
9547;SDS011;4812;51.992;8.648;2023-02-01T00:17:47;13.53;;;4.27;;
9547;SDS011;4812;51.992;8.648;2023-02-01T00:20:14;13.60;;;4.40;;
9547;SDS011;4812;51.992;8.648;2023-02-01T00:22:43;19.37;;;4.50;;
9547;SDS011;4812;51.992;8.648;2023-02-01T00:25:10;18.80;;;4.53;;
9547;SDS011;4812;51.992;8.648;2023-02-01T00:27:38;10.53;;;3.33;;
9547;SDS011;4812;51.992;8.648;2023-02-01T00:32:54;20.67;;;4.43;;
9547;SDS011;4812;51.992;8.648;2023-02-01T00:35:22;19.30;;;4.33;;
9547;SDS011;4812;51.992;8.648;2023-02-01T00:37:51;15.37;;;4.57;;
9547;SDS011;4812;51.992;8.648;2023-02-01T00:40:18;15.57;;;4.17;;
9547;SDS011;4812;51.992;8.648;2023-02-01T00:42:46;14.57;;;4.43;;
9547;SDS011;4812;51.992;8.648;2023-02-01T00:45:14;11.57;;;3.53;;
9547;SDS011;4812;51.992;8.648;2023-02-01T00:47:41;18.13;;;4.60;;
9547;SDS011;4812;51.992;8.648;2023-02-01T00:50:09;12.30;;;4.47;;
9547;SDS011;4812;51.992;8.648;2023-02-01T00:52:37;18.93;;;4.43;;
9547;SDS011;4812;51.992;8.648;2023-02-01T00:57:47;10.63;;;4.30;;
9547;SDS011;4812;51.992;8.648;2023-02-01T01:00:16;16.40;;;4.07;;
9547;SDS011;4812;51.992;8.648;2023-02-01T01:02:45;16.17;;;3.93;;
9547;SDS011;4812;51.992;8.648;2023-02-01T01:05:12;12.20;;;4.20;;
9547;SDS011;4812;51.992;8.648;2023-02-01T01:07:40;18.23;;;4.40;;
9547;SDS011;4812;51.992;8.648;2023-02-01T01:10:08;12.23;;;4.20;;
9547;SDS011;4812;51.992;8.648;2023-02-01T01:12:36;12.37;;;5.00;;
9547;SDS011;4812;51.992;8.648;2023-02-01T01:15:05;12.83;;;3.97;;
9547;SDS011;4812;51.992;8.648;2023-02-01T01:17:33;19.93;;;4.03;;
9547;SDS011;4812;51.992;8.648;2023-02-01T01:20:02;15.83;;;4.13;;
9547;SDS011;4812;51.992;8.648;2023-02-01T01:22:29;14.03;;;4.30;;
9547;SDS011;4812;51.992;8.648;2023-02-01T01:24:57;17.53;;;4.60;;
9547;SDS011;4812;51.992;8.648;2023-02-01T01:27:24;12.17;;;4.77;;
9547;SDS011;4812;51.992;8.648;2023-02-01T01:29:52;12.63;;;4.20;;
9547;SDS011;4812;51.992;8.648;2023-02-01T01:32:21;15.87;;;4.37;;
9547;SDS011;4812;51.992;8.648;2023-02-01T01:34:48;11.30;;;4.30;;
9547;SDS011;4812;51.992;8.648;2023-02-01T01:37:16;13.43;;;3.70;;
9547;SDS011;4812;51.992;8.648;2023-02-01T01:42:36;14.67;;;4.27;;
9547;SDS011;4812;51.992;8.648;2023-02-01T01:45:05;15.80;;;5.20;;
9547;SDS011;4812;51.992;8.648;2023-02-01T01:50:38;15.07;;;4.70;;
9547;SDS011;4812;51.992;8.648;2023-02-01T01:53:08;20.80;;;4.73;;
9547;SDS011;4812;51.992;8.648;2023-02-01T01:55:39;11.27;;;3.97;;
9547;SDS011;4812;51.992;8.648;2023-02-01T01:58:12;20.07;;;4.90;;
9547;SDS011;4812;51.992;8.648;2023-02-01T02:00:42;19.40;;;4.67;;
9547;SDS011;4812;51.992;8.648;2023-02-01T02:03:11;17.87;;;4.87;;
9547;SDS011;4812;51.992;8.648;2023-02-01T02:05:43;16.53;;;5.37;;
9547;SDS011;4812;51.992;8.648;2023-02-01T02:08:11;19.13;;;4.40;;
9547;SDS011;4812;51.992;8.648;2023-02-01T02:10:39;13.40;;;4.60;;
9547;SDS011;4812;51.992;8.648;2023-02-01T02:13:24;19.57;;;4.60;;
9547;SDS011;4812;51.992;8.648;2023-02-01T02:15:54;11.80;;;4.07;;
9547;SDS011;4812;51.992;8.648;2023-02-01T02:18:31;14.90;;;4.60;;
9547;SDS011;4812;51.992;8.648;2023-02-01T02:21:12;18.13;;;4.77;;
9547;SDS011;4812;51.992;8.648;2023-02-01T02:26:55;17.07;;;4.13;;
9547;SDS011;4812;51.992;8.648;2023-02-01T02:36:15;11.73;;;4.53;;
9547;SDS011;4812;51.992;8.648;2023-02-01T02:39:16;11.03;;;4.70;;
9547;SDS011;4812;51.992;8.648;2023-02-01T02:41:50;19.43;;;4.93;;
9547;SDS011;4812;51.992;8.648;2023-02-01T02:44:43;18.33;;;4.80;;
9547;SDS011;4812;51.992;8.648;2023-02-01T02:47:32;10.97;;;4.03;;
9547;SDS011;4812;51.992;8.648;2023-02-01T02:50:09;14.80;;;5.03;;
9547;SDS011;4812;51.992;8.648;2023-02-01T02:56:04;11.53;;;4.70;;
9547;SDS011;4812;51.992;8.648;2023-02-01T02:58:50;19.80;;;4.93;;
9547;SDS011;4812;51.992;8.648;2023-02-01T03:01:59;13.73;;;5.03;;
9547;SDS011;4812;51.992;8.648;2023-02-01T03:04:44;14.70;;;4.47;;
9547;SDS011;4812;51.992;8.648;2023-02-01T03:07:12;16.30;;;4.93;;
9547;SDS011;4812;51.992;8.648;2023-02-01T03:09:40;12.97;;;4.70;;
9547;SDS011;4812;51.992;8.648;2023-02-01T03:12:12;11.77;;;4.87;;
9547;SDS011;4812;51.992;8.648;2023-02-01T03:15:00;10.07;;;4.20;;
9547;SDS011;4812;51.992;8.648;2023-02-01T03:17:33;16.13;;;4.17;;
9547;SDS011;4812;51.992;8.648;2023-02-01T03:20:03;8.30;;;4.17;;
9547;SDS011;4812;51.992;8.648;2023-02-01T03:22:31;17.43;;;4.97;;
9547;SDS011;4812;51.992;8.648;2023-02-01T03:25:02;16.33;;;4.57;;
9547;SDS011;4812;51.992;8.648;2023-02-01T03:27:35;10.37;;;3.87;;
9547;SDS011;4812;51.992;8.648;2023-02-01T03:30:06;14.80;;;4.30;;
9547;SDS011;4812;51.992;8.648;2023-02-01T03:32:37;13.07;;;4.37;;
9547;SDS011;4812;51.992;8.648;2023-02-01T03:35:20;10.50;;;4.60;;
9547;SDS011;4812;51.992;8.648;2023-02-01T03:37:52;16.40;;;4.07;;
9547;SDS011;4812;51.992;8.648;2023-02-01T03:40:20;12.90;;;4.73;;
9547;SDS011;4812;51.992;8.648;2023-02-01T03:42:51;12.13;;;4.47;;
9547;SDS011;4812;51.992;8.648;2023-02-01T03:45:22;12.80;;;4.73;;
9547;SDS011;4812;51.992;8.648;2023-02-01T03:47:52;16.13;;;4.87;;
9547;SDS011;4812;51.992;8.648;2023-02-01T03:50:23;12.53;;;4.50;;
9547;SDS011;4812;51.992;8.648;2023-02-01T03:52:52;14.73;;;4.70;;
9547;SDS011;4812;51.992;8.648;2023-02-01T03:55:22;14.60;;;4.67;;
9547;SDS011;4812;51.992;8.648;2023-02-01T03:57:53;15.13;;;4.60;;
9547;SDS011;4812;51.992;8.648;2023-02-01T04:00:23;9.83;;;4.20;;
9547;SDS011;4812;51.992;8.648;2023-02-01T04:02:54;14.80;;;4.43;;
9547;SDS011;4812;51.992;8.648;2023-02-01T04:05:22;17.50;;;5.00;;
9547;SDS011;4812;51.992;8.648;2023-02-01T04:07:57;10.60;;;3.93;;
9547;SDS011;4812;51.992;8.648;2023-02-01T04:10:24;12.97;;;4.73;;
9547;SDS011;4812;51.992;8.648;2023-02-01T04:12:53;16.93;;;5.10;;
9547;SDS011;4812;51.992;8.648;2023-02-01T04:18:12;6.20;;;4.07;;
9547;SDS011;4812;51.992;8.648;2023-02-01T04:20:40;9.80;;;4.00;;
9547;SDS011;4812;51.992;8.648;2023-02-01T04:23:07;15.57;;;4.73;;
9547;SDS011;4812;51.992;8.648;2023-02-01T04:28:24;6.93;;;4.13;;
9547;SDS011;4812;51.992;8.648;2023-02-01T04:33:49;11.07;;;5.03;;
9547;SDS011;4812;51.992;8.648;2023-02-01T04:36:16;8.97;;;4.60;;
9547;SDS011;4812;51.992;8.648;2023-02-01T04:41:34;9.23;;;4.43;;
9547;SDS011;4812;51.992;8.648;2023-02-01T04:44:03;11.40;;;5.20;;
9547;SDS011;4812;51.992;8.648;2023-02-01T04:46:31;10.17;;;5.17;;
9547;SDS011;4812;51.992;8.648;2023-02-01T04:49:01;16.83;;;7.23;;
9547;SDS011;4812;51.992;8.648;2023-02-01T04:51:28;16.50;;;8.13;;
9547;SDS011;4812;51.992;8.648;2023-02-01T04:53:56;15.70;;;6.53;;
9547;SDS011;4812;51.992;8.648;2023-02-01T04:56:23;17.73;;;6.70;;
9547;SDS011;4812;51.992;8.648;2023-02-01T04:58:51;14.13;;;6.47;;
9547;SDS011;4812;51.992;8.648;2023-02-01T05:01:20;13.57;;;5.83;;
9547;SDS011;4812;51.992;8.648;2023-02-01T05:03:47;14.80;;;6.87;;
9547;SDS011;4812;51.992;8.648;2023-02-01T05:09:17;16.27;;;5.70;;
9547;SDS011;4812;51.992;8.648;2023-02-01T05:11:44;9.70;;;5.57;;
9547;SDS011;4812;51.992;8.648;2023-02-01T05:17:29;15.10;;;5.30;;
9547;SDS011;4812;51.992;8.648;2023-02-01T05:19:57;13.10;;;5.43;;
9547;SDS011;4812;51.992;8.648;2023-02-01T05:22:24;12.00;;;5.63;;
9547;SDS011;4812;51.992;8.648;2023-02-01T05:24:52;16.30;;;6.23;;
9547;SDS011;4812;51.992;8.648;2023-02-01T05:30:08;15.73;;;5.10;;
9547;SDS011;4812;51.992;8.648;2023-02-01T05:32:38;12.57;;;5.03;;
9547;SDS011;4812;51.992;8.648;2023-02-01T05:35:06;19.40;;;5.63;;
9547;SDS011;4812;51.992;8.648;2023-02-01T05:37:34;25.00;;;5.90;;
9547;SDS011;4812;51.992;8.648;2023-02-01T05:42:50;12.10;;;4.77;;
9547;SDS011;4812;51.992;8.648;2023-02-01T05:45:17;9.17;;;4.87;;
9547;SDS011;4812;51.992;8.648;2023-02-01T05:47:46;22.43;;;6.03;;
9547;SDS011;4812;51.992;8.648;2023-02-01T05:50:14;21.37;;;5.60;;
9547;SDS011;4812;51.992;8.648;2023-02-01T05:52:42;14.50;;;5.33;;
9547;SDS011;4812;51.992;8.648;2023-02-01T05:55:10;13.43;;;5.40;;
9547;SDS011;4812;51.992;8.648;2023-02-01T05:57:37;12.03;;;5.17;;
9547;SDS011;4812;51.992;8.648;2023-02-01T06:00:05;25.20;;;5.60;;
9547;SDS011;4812;51.992;8.648;2023-02-01T06:02:37;11.90;;;4.30;;
9547;SDS011;4812;51.992;8.648;2023-02-01T06:05:07;14.03;;;5.80;;
9547;SDS011;4812;51.992;8.648;2023-02-01T06:07:34;9.17;;;5.60;;
9547;SDS011;4812;51.992;8.648;2023-02-01T06:10:02;14.33;;;4.70;;
9547;SDS011;4812;51.992;8.648;2023-02-01T06:12:30;19.23;;;5.90;;
9547;SDS011;4812;51.992;8.648;2023-02-01T06:14:58;10.10;;;4.83;;
9547;SDS011;4812;51.992;8.648;2023-02-01T06:17:38;18.57;;;5.37;;
9547;SDS011;4812;51.992;8.648;2023-02-01T06:20:07;14.13;;;5.10;;
9547;SDS011;4812;51.992;8.648;2023-02-01T06:22:37;9.50;;;4.67;;
9547;SDS011;4812;51.992;8.648;2023-02-01T06:25:05;14.67;;;4.97;;
9547;SDS011;4812;51.992;8.648;2023-02-01T06:27:34;15.60;;;5.90;;
9547;SDS011;4812;51.992;8.648;2023-02-01T06:30:02;15.87;;;4.93;;
9547;SDS011;4812;51.992;8.648;2023-02-01T06:35:30;16.83;;;3.93;;
9547;SDS011;4812;51.992;8.648;2023-02-01T06:37:58;10.30;;;4.03;;
9547;SDS011;4812;51.992;8.648;2023-02-01T06:40:25;10.73;;;4.17;;
9547;SDS011;4812;51.992;8.648;2023-02-01T06:42:53;8.07;;;3.77;;
9547;SDS011;4812;51.992;8.648;2023-02-01T06:45:20;17.13;;;5.10;;
9547;SDS011;4812;51.992;8.648;2023-02-01T06:47:48;13.80;;;4.17;;
9547;SDS011;4812;51.992;8.648;2023-02-01T06:50:15;12.13;;;4.70;;
9547;SDS011;4812;51.992;8.648;2023-02-01T06:52:44;13.67;;;5.47;;
9547;SDS011;4812;51.992;8.648;2023-02-01T06:55:12;21.37;;;5.57;;
9547;SDS011;4812;51.992;8.648;2023-02-01T06:57:39;19.97;;;5.30;;
9547;SDS011;4812;51.992;8.648;2023-02-01T07:00:07;9.30;;;4.70;;
9547;SDS011;4812;51.992;8.648;2023-02-01T07:02:36;19.23;;;5.70;;
9547;SDS011;4812;51.992;8.648;2023-02-01T07:05:04;16.40;;;5.10;;
9547;SDS011;4812;51.992;8.648;2023-02-01T07:07:32;9.93;;;4.87;;
9547;SDS011;4812;51.992;8.648;2023-02-01T07:10:01;9.83;;;4.57;;
9547;SDS011;4812;51.992;8.648;2023-02-01T07:12:28;8.87;;;4.93;;
9547;SDS011;4812;51.992;8.648;2023-02-01T07:14:56;18.80;;;4.87;;
9547;SDS011;4812;51.992;8.648;2023-02-01T07:17:23;10.80;;;4.83;;
9547;SDS011;4812;51.992;8.648;2023-02-01T07:22:39;10.63;;;5.17;;
9547;SDS011;4812;51.992;8.648;2023-02-01T07:25:08;6.97;;;4.67;;
9547;SDS011;4812;51.992;8.648;2023-02-01T07:27:36;17.03;;;4.50;;
9547;SDS011;4812;51.992;8.648;2023-02-01T07:30:04;12.87;;;5.30;;
9547;SDS011;4812;51.992;8.648;2023-02-01T07:32:33;17.87;;;5.47;;
9547;SDS011;4812;51.992;8.648;2023-02-01T07:35:00;16.03;;;5.10;;
9547;SDS011;4812;51.992;8.648;2023-02-01T07:37:28;11.53;;;4.80;;
9547;SDS011;4812;51.992;8.648;2023-02-01T07:39:56;14.60;;;5.43;;
9547;SDS011;4812;51.992;8.648;2023-02-01T07:45:25;9.57;;;4.50;;
9547;SDS011;4812;51.992;8.648;2023-02-01T07:47:52;10.53;;;4.90;;
9547;SDS011;4812;51.992;8.648;2023-02-01T07:50:20;9.77;;;5.43;;
9547;SDS011;4812;51.992;8.648;2023-02-01T07:52:48;13.20;;;4.67;;
9547;SDS011;4812;51.992;8.648;2023-02-01T07:55:16;14.97;;;4.77;;
9547;SDS011;4812;51.992;8.648;2023-02-01T07:57:43;13.93;;;5.80;;
9547;SDS011;4812;51.992;8.648;2023-02-01T08:00:11;14.80;;;5.00;;
9547;SDS011;4812;51.992;8.648;2023-02-01T08:02:58;15.87;;;5.83;;
9547;SDS011;4812;51.992;8.648;2023-02-01T08:05:26;13.37;;;5.63;;
9547;SDS011;4812;51.992;8.648;2023-02-01T08:07:54;20.03;;;6.20;;
9547;SDS011;4812;51.992;8.648;2023-02-01T08:10:21;9.40;;;4.40;;
9547;SDS011;4812;51.992;8.648;2023-02-01T08:12:50;20.33;;;5.70;;
9547;SDS011;4812;51.992;8.648;2023-02-01T08:15:18;18.77;;;5.33;;
9547;SDS011;4812;51.992;8.648;2023-02-01T08:17:46;13.83;;;4.63;;
9547;SDS011;4812;51.992;8.648;2023-02-01T08:20:16;17.40;;;5.50;;
9547;SDS011;4812;51.992;8.648;2023-02-01T08:22:44;19.30;;;5.03;;
9547;SDS011;4812;51.992;8.648;2023-02-01T08:28:01;11.47;;;4.20;;
9547;SDS011;4812;51.992;8.648;2023-02-01T08:30:28;12.93;;;4.83;;
9547;SDS011;4812;51.992;8.648;2023-02-01T08:32:56;12.40;;;4.63;;
9547;SDS011;4812;51.992;8.648;2023-02-01T08:35:24;11.73;;;5.73;;
9547;SDS011;4812;51.992;8.648;2023-02-01T08:40:46;14.03;;;4.70;;
9547;SDS011;4812;51.992;8.648;2023-02-01T08:43:13;16.27;;;4.90;;
9547;SDS011;4812;51.992;8.648;2023-02-01T08:45:41;12.77;;;5.47;;
9547;SDS011;4812;51.992;8.648;2023-02-01T08:48:08;13.57;;;6.93;;
9547;SDS011;4812;51.992;8.648;2023-02-01T08:50:37;13.07;;;7.33;;
9547;SDS011;4812;51.992;8.648;2023-02-01T08:53:05;13.53;;;7.17;;
9547;SDS011;4812;51.992;8.648;2023-02-01T08:58:35;10.13;;;7.20;;
9547;SDS011;4812;51.992;8.648;2023-02-01T09:01:03;14.60;;;6.43;;
9547;SDS011;4812;51.992;8.648;2023-02-01T09:03:32;13.60;;;5.57;;
9547;SDS011;4812;51.992;8.648;2023-02-01T09:09:01;15.00;;;5.77;;
9547;SDS011;4812;51.992;8.648;2023-02-01T09:14:17;14.17;;;5.63;;
9547;SDS011;4812;51.992;8.648;2023-02-01T09:16:44;12.87;;;5.20;;
9547;SDS011;4812;51.992;8.648;2023-02-01T09:19:12;12.37;;;5.27;;
9547;SDS011;4812;51.992;8.648;2023-02-01T09:21:51;18.03;;;6.63;;
9547;SDS011;4812;51.992;8.648;2023-02-01T09:24:20;10.50;;;5.10;;
9547;SDS011;4812;51.992;8.648;2023-02-01T09:26:48;16.17;;;6.53;;
9547;SDS011;4812;51.992;8.648;2023-02-01T09:29:16;14.67;;;5.53;;
9547;SDS011;4812;51.992;8.648;2023-02-01T09:31:43;18.87;;;6.33;;
9547;SDS011;4812;51.992;8.648;2023-02-01T09:34:55;10.20;;;5.30;;
9547;SDS011;4812;51.992;8.648;2023-02-01T09:37:22;16.17;;;5.83;;
9547;SDS011;4812;51.992;8.648;2023-02-01T09:39:51;17.13;;;5.57;;
9547;SDS011;4812;51.992;8.648;2023-02-01T09:42:25;9.53;;;5.30;;
9547;SDS011;4812;51.992;8.648;2023-02-01T09:45:32;12.10;;;5.73;;
9547;SDS011;4812;51.992;8.648;2023-02-01T09:48:08;14.97;;;5.77;;
9547;SDS011;4812;51.992;8.648;2023-02-01T09:50:38;16.30;;;5.90;;
9547;SDS011;4812;51.992;8.648;2023-02-01T09:53:10;14.17;;;6.13;;
9547;SDS011;4812;51.992;8.648;2023-02-01T09:58:24;16.80;;;6.37;;
9547;SDS011;4812;51.992;8.648;2023-02-01T10:04:07;14.90;;;5.80;;
9547;SDS011;4812;51.992;8.648;2023-02-01T10:09:39;12.47;;;5.77;;
9547;SDS011;4812;51.992;8.648;2023-02-01T10:12:18;16.20;;;6.33;;
9547;SDS011;4812;51.992;8.648;2023-02-01T10:15:01;16.47;;;7.20;;
9547;SDS011;4812;51.992;8.648;2023-02-01T10:17:39;10.60;;;5.77;;
9547;SDS011;4812;51.992;8.648;2023-02-01T10:20:22;12.03;;;5.20;;
9547;SDS011;4812;51.992;8.648;2023-02-01T10:22:54;16.50;;;6.23;;
9547;SDS011;4812;51.992;8.648;2023-02-01T10:25:50;15.67;;;6.67;;
9547;SDS011;4812;51.992;8.648;2023-02-01T10:28:20;10.63;;;6.10;;
9547;SDS011;4812;51.992;8.648;2023-02-01T10:30:51;14.43;;;6.60;;
9547;SDS011;4812;51.992;8.648;2023-02-01T10:33:23;17.03;;;6.40;;
9547;SDS011;4812;51.992;8.648;2023-02-01T10:38:41;16.07;;;6.60;;
9547;SDS011;4812;51.992;8.648;2023-02-01T10:41:10;15.63;;;6.80;;
9547;SDS011;4812;51.992;8.648;2023-02-01T10:43:39;14.60;;;6.53;;
9547;SDS011;4812;51.992;8.648;2023-02-01T10:46:08;17.00;;;8.10;;
9547;SDS011;4812;51.992;8.648;2023-02-01T10:48:36;12.23;;;6.70;;
9547;SDS011;4812;51.992;8.648;2023-02-01T10:51:05;12.17;;;6.00;;
9547;SDS011;4812;51.992;8.648;2023-02-01T10:53:35;16.40;;;6.10;;
9547;SDS011;4812;51.992;8.648;2023-02-01T10:56:09;9.60;;;6.33;;
9547;SDS011;4812;51.992;8.648;2023-02-01T10:58:42;22.20;;;9.77;;
9547;SDS011;4812;51.992;8.648;2023-02-01T11:04:01;22.40;;;6.93;;
9547;SDS011;4812;51.992;8.648;2023-02-01T11:06:30;16.73;;;6.80;;
9547;SDS011;4812;51.992;8.648;2023-02-01T11:09:00;17.13;;;5.97;;
9547;SDS011;4812;51.992;8.648;2023-02-01T11:11:52;13.97;;;5.90;;
9547;SDS011;4812;51.992;8.648;2023-02-01T11:16:54;13.87;;;5.87;;
9547;SDS011;4812;51.992;8.648;2023-02-01T11:19:25;15.80;;;5.97;;
9547;SDS011;4812;51.992;8.648;2023-02-01T11:21:54;15.93;;;6.40;;
9547;SDS011;4812;51.992;8.648;2023-02-01T11:24:22;14.80;;;6.33;;
9547;SDS011;4812;51.992;8.648;2023-02-01T11:26:53;8.77;;;5.47;;
9547;SDS011;4812;51.992;8.648;2023-02-01T11:29:22;10.53;;;5.90;;
9547;SDS011;4812;51.992;8.648;2023-02-01T11:31:55;15.27;;;5.67;;
9547;SDS011;4812;51.992;8.648;2023-02-01T11:34:25;8.37;;;5.70;;
9547;SDS011;4812;51.992;8.648;2023-02-01T11:36:56;11.43;;;6.40;;
9547;SDS011;4812;51.992;8.648;2023-02-01T11:42:14;14.30;;;6.13;;
9547;SDS011;4812;51.992;8.648;2023-02-01T11:44:44;14.97;;;6.87;;
9547;SDS011;4812;51.992;8.648;2023-02-01T11:47:18;15.57;;;6.47;;
9547;SDS011;4812;51.992;8.648;2023-02-01T11:49:50;15.63;;;6.40;;
9547;SDS011;4812;51.992;8.648;2023-02-01T11:52:21;15.80;;;6.40;;
9547;SDS011;4812;51.992;8.648;2023-02-01T11:58:09;17.23;;;11.20;;
9547;SDS011;4812;51.992;8.648;2023-02-01T12:06:42;11.07;;;8.87;;
9547;SDS011;4812;51.992;8.648;2023-02-01T12:09:20;14.53;;;8.43;;
9547;SDS011;4812;51.992;8.648;2023-02-01T12:11:55;19.43;;;9.33;;
9547;SDS011;4812;51.992;8.648;2023-02-01T12:14:36;10.80;;;7.20;;
9547;SDS011;4812;51.992;8.648;2023-02-01T12:17:17;10.00;;;7.03;;
9547;SDS011;4812;51.992;8.648;2023-02-01T12:19:57;10.97;;;6.20;;
9547;SDS011;4812;51.992;8.648;2023-02-01T12:22:35;10.43;;;5.80;;
9547;SDS011;4812;51.992;8.648;2023-02-01T12:25:13;10.63;;;5.73;;
9547;SDS011;4812;51.992;8.648;2023-02-01T12:27:55;10.67;;;5.73;;
9547;SDS011;4812;51.992;8.648;2023-02-01T12:30:44;8.30;;;4.93;;
9547;SDS011;4812;51.992;8.648;2023-02-01T12:33:37;13.07;;;6.20;;
9547;SDS011;4812;51.992;8.648;2023-02-01T12:36:10;9.87;;;5.20;;
9547;SDS011;4812;51.992;8.648;2023-02-01T12:41:50;17.90;;;6.77;;
9547;SDS011;4812;51.992;8.648;2023-02-01T12:44:26;10.13;;;5.00;;
9547;SDS011;4812;51.992;8.648;2023-02-01T12:46:59;14.70;;;6.00;;
9547;SDS011;4812;51.992;8.648;2023-02-01T12:49:30;14.23;;;5.70;;
9547;SDS011;4812;51.992;8.648;2023-02-01T12:52:06;8.87;;;5.17;;
9547;SDS011;4812;51.992;8.648;2023-02-01T12:54:39;17.37;;;6.13;;
9547;SDS011;4812;51.992;8.648;2023-02-01T12:57:17;13.00;;;5.33;;
9547;SDS011;4812;51.992;8.648;2023-02-01T12:59:47;10.67;;;4.10;;
9547;SDS011;4812;51.992;8.648;2023-02-01T13:02:19;11.37;;;4.83;;
9547;SDS011;4812;51.992;8.648;2023-02-01T13:04:53;16.57;;;5.17;;
9547;SDS011;4812;51.992;8.648;2023-02-01T13:07:28;13.73;;;5.20;;
9547;SDS011;4812;51.992;8.648;2023-02-01T13:09:59;14.77;;;4.70;;
9547;SDS011;4812;51.992;8.648;2023-02-01T13:12:32;10.43;;;4.47;;
9547;SDS011;4812;51.992;8.648;2023-02-01T13:15:04;7.03;;;4.07;;
9547;SDS011;4812;51.992;8.648;2023-02-01T13:20:28;13.53;;;4.47;;
9547;SDS011;4812;51.992;8.648;2023-02-01T13:22:59;13.03;;;4.13;;
9547;SDS011;4812;51.992;8.648;2023-02-01T13:25:31;8.80;;;3.53;;
9547;SDS011;4812;51.992;8.648;2023-02-01T13:28:04;15.47;;;4.63;;
9547;SDS011;4812;51.992;8.648;2023-02-01T13:30:38;11.47;;;4.73;;
9547;SDS011;4812;51.992;8.648;2023-02-01T13:33:18;11.20;;;4.47;;
9547;SDS011;4812;51.992;8.648;2023-02-01T13:42:13;6.57;;;4.60;;
9547;SDS011;4812;51.992;8.648;2023-02-01T13:44:45;11.80;;;5.13;;
9547;SDS011;4812;51.992;8.648;2023-02-01T13:47:18;8.47;;;4.33;;
9547;SDS011;4812;51.992;8.648;2023-02-01T13:52:39;9.20;;;4.20;;
9547;SDS011;4812;51.992;8.648;2023-02-01T13:55:14;15.63;;;4.03;;
9547;SDS011;4812;51.992;8.648;2023-02-01T13:57:59;11.47;;;4.63;;
9547;SDS011;4812;51.992;8.648;2023-02-01T14:00:31;8.30;;;3.97;;
9547;SDS011;4812;51.992;8.648;2023-02-01T14:03:12;11.67;;;5.13;;
9547;SDS011;4812;51.992;8.648;2023-02-01T14:06:00;9.90;;;3.70;;
9547;SDS011;4812;51.992;8.648;2023-02-01T14:11:33;13.03;;;4.27;;
9547;SDS011;4812;51.992;8.648;2023-02-01T14:23:16;7.87;;;3.17;;
9547;SDS011;4812;51.992;8.648;2023-02-01T14:25:45;9.90;;;4.13;;
9547;SDS011;4812;51.992;8.648;2023-02-01T14:28:22;12.40;;;5.40;;
9547;SDS011;4812;51.992;8.648;2023-02-01T14:30:53;3.83;;;2.43;;
9547;SDS011;4812;51.992;8.648;2023-02-01T14:33:23;7.03;;;3.07;;
9547;SDS011;4812;51.992;8.648;2023-02-01T14:35:57;2.60;;;2.30;;
9547;SDS011;4812;51.992;8.648;2023-02-01T14:38:30;3.10;;;1.80;;
9547;SDS011;4812;51.992;8.648;2023-02-01T14:41:10;4.43;;;2.30;;
9547;SDS011;4812;51.992;8.648;2023-02-01T14:43:49;5.83;;;2.77;;
9547;SDS011;4812;51.992;8.648;2023-02-01T14:46:17;5.83;;;2.00;;
9547;SDS011;4812;51.992;8.648;2023-02-01T14:48:47;1.83;;;1.70;;
9547;SDS011;4812;51.992;8.648;2023-02-01T14:51:45;3.10;;;1.83;;
9547;SDS011;4812;51.992;8.648;2023-02-01T14:54:12;4.90;;;2.07;;
9547;SDS011;4812;51.992;8.648;2023-02-01T14:56:41;4.67;;;2.10;;
9547;SDS011;4812;51.992;8.648;2023-02-01T14:59:08;3.30;;;2.30;;
9547;SDS011;4812;51.992;8.648;2023-02-01T15:01:46;6.33;;;2.63;;
9547;SDS011;4812;51.992;8.648;2023-02-01T15:04:18;5.73;;;2.50;;
9547;SDS011;4812;51.992;8.648;2023-02-01T15:06:48;10.37;;;2.73;;
9547;SDS011;4812;51.992;8.648;2023-02-01T15:09:18;5.90;;;2.43;;
9547;SDS011;4812;51.992;8.648;2023-02-01T15:11:58;3.30;;;2.37;;
9547;SDS011;4812;51.992;8.648;2023-02-01T15:14:29;8.57;;;3.10;;
9547;SDS011;4812;51.992;8.648;2023-02-01T15:16:57;5.97;;;3.10;;
9547;SDS011;4812;51.992;8.648;2023-02-01T15:22:22;5.47;;;2.90;;
9547;SDS011;4812;51.992;8.648;2023-02-01T15:24:51;7.07;;;2.70;;
9547;SDS011;4812;51.992;8.648;2023-02-01T15:27:49;9.07;;;2.73;;
9547;SDS011;4812;51.992;8.648;2023-02-01T15:30:17;9.13;;;2.93;;
9547;SDS011;4812;51.992;8.648;2023-02-01T15:32:46;7.60;;;3.20;;
9547;SDS011;4812;51.992;8.648;2023-02-01T15:35:34;7.43;;;2.60;;
9547;SDS011;4812;51.992;8.648;2023-02-01T15:38:19;3.50;;;2.77;;
9547;SDS011;4812;51.992;8.648;2023-02-01T15:40:59;9.13;;;2.83;;
9547;SDS011;4812;51.992;8.648;2023-02-01T15:43:28;10.40;;;3.40;;
9547;SDS011;4812;51.992;8.648;2023-02-01T15:45:56;7.67;;;2.70;;
9547;SDS011;4812;51.992;8.648;2023-02-01T15:48:25;8.50;;;2.80;;
9547;SDS011;4812;51.992;8.648;2023-02-01T15:53:50;10.13;;;3.27;;
9547;SDS011;4812;51.992;8.648;2023-02-01T15:56:22;4.37;;;2.47;;
9547;SDS011;4812;51.992;8.648;2023-02-01T15:58:52;4.57;;;2.47;;
9547;SDS011;4812;51.992;8.648;2023-02-01T16:01:21;9.63;;;2.93;;
9547;SDS011;4812;51.992;8.648;2023-02-01T16:03:49;8.03;;;3.10;;
9547;SDS011;4812;51.992;8.648;2023-02-01T16:06:30;6.27;;;2.93;;
9547;SDS011;4812;51.992;8.648;2023-02-01T16:09:03;7.63;;;3.20;;
9547;SDS011;4812;51.992;8.648;2023-02-01T16:11:40;10.73;;;3.37;;
9547;SDS011;4812;51.992;8.648;2023-02-01T16:14:13;9.10;;;2.87;;
9547;SDS011;4812;51.992;8.648;2023-02-01T16:16:41;11.93;;;3.63;;
9547;SDS011;4812;51.992;8.648;2023-02-01T16:22:11;7.27;;;3.47;;
9547;SDS011;4812;51.992;8.648;2023-02-01T16:24:39;13.30;;;3.33;;
9547;SDS011;4812;51.992;8.648;2023-02-01T16:27:07;12.93;;;3.17;;
9547;SDS011;4812;51.992;8.648;2023-02-01T16:29:34;12.60;;;3.30;;
9547;SDS011;4812;51.992;8.648;2023-02-01T16:32:02;9.00;;;3.23;;
9547;SDS011;4812;51.992;8.648;2023-02-01T16:34:30;10.73;;;3.53;;
9547;SDS011;4812;51.992;8.648;2023-02-01T16:36:58;6.90;;;3.23;;
9547;SDS011;4812;51.992;8.648;2023-02-01T16:39:26;10.83;;;3.27;;
9547;SDS011;4812;51.992;8.648;2023-02-01T16:41:56;9.00;;;3.50;;
9547;SDS011;4812;51.992;8.648;2023-02-01T16:44:26;11.90;;;4.43;;
9547;SDS011;4812;51.992;8.648;2023-02-01T16:46:53;14.73;;;4.80;;
9547;SDS011;4812;51.992;8.648;2023-02-01T16:49:22;10.60;;;3.63;;
9547;SDS011;4812;51.992;8.648;2023-02-01T16:51:51;12.23;;;3.90;;
9547;SDS011;4812;51.992;8.648;2023-02-01T16:54:23;12.23;;;3.53;;
9547;SDS011;4812;51.992;8.648;2023-02-01T16:59:45;17.60;;;4.73;;
9547;SDS011;4812;51.992;8.648;2023-02-01T17:02:14;13.77;;;4.13;;
9547;SDS011;4812;51.992;8.648;2023-02-01T17:04:42;5.33;;;2.90;;
9547;SDS011;4812;51.992;8.648;2023-02-01T17:09:49;9.60;;;3.57;;
9547;SDS011;4812;51.992;8.648;2023-02-01T17:12:20;10.37;;;3.60;;
9547;SDS011;4812;51.992;8.648;2023-02-01T17:14:49;7.97;;;3.50;;
9547;SDS011;4812;51.992;8.648;2023-02-01T17:17:17;9.77;;;3.80;;
9547;SDS011;4812;51.992;8.648;2023-02-01T17:20:03;14.57;;;3.97;;
9547;SDS011;4812;51.992;8.648;2023-02-01T17:22:32;11.70;;;4.90;;
9547;SDS011;4812;51.992;8.648;2023-02-01T17:24:59;13.83;;;4.23;;
9547;SDS011;4812;51.992;8.648;2023-02-01T17:27:28;8.87;;;3.37;;
9547;SDS011;4812;51.992;8.648;2023-02-01T17:29:56;18.07;;;4.50;;
9547;SDS011;4812;51.992;8.648;2023-02-01T17:32:24;17.87;;;4.07;;
9547;SDS011;4812;51.992;8.648;2023-02-01T17:34:54;10.00;;;3.87;;
9547;SDS011;4812;51.992;8.648;2023-02-01T17:37:24;15.27;;;3.97;;
9547;SDS011;4812;51.992;8.648;2023-02-01T17:39:53;17.90;;;4.10;;
9547;SDS011;4812;51.992;8.648;2023-02-01T17:42:23;14.33;;;3.90;;
9547;SDS011;4812;51.992;8.648;2023-02-01T17:47:52;12.47;;;3.93;;
9547;SDS011;4812;51.992;8.648;2023-02-01T17:50:23;14.10;;;4.97;;
9547;SDS011;4812;51.992;8.648;2023-02-01T17:52:53;16.10;;;4.13;;
9547;SDS011;4812;51.992;8.648;2023-02-01T17:55:21;15.93;;;4.70;;